sensor_id;sensor_type;location;lat;lon;timestamp;pressure;altitude;pressure_sealevel;temperature;humidity
43878;BME280;29815;48.184;11.268;2023-03-23T00:00:06;95111.75;;;8.22;100.00
43878;BME280;29815;48.184;11.268;2023-03-23T00:02:41;95111.22;;;8.25;100.00
43878;BME280;29815;48.184;11.268;2023-03-23T00:05:10;95114.16;;;8.23;100.00
43878;BME280;29815;48.184;11.268;2023-03-23T00:07:40;95110.69;;;8.28;100.00
43878;BME280;29815;48.184;11.268;2023-03-23T00:10:11;95110.97;;;8.31;100.00
43878;BME280;29815;48.184;11.268;2023-03-23T00:12:40;95108.28;;;8.31;100.00
43878;BME280;29815;48.184;11.268;2023-03-23T00:15:09;95103.72;;;8.32;100.00
43878;BME280;29815;48.184;11.268;2023-03-23T00:17:39;95111.78;;;8.32;100.00
43878;BME280;29815;48.184;11.268;2023-03-23T00:20:10;95110.72;;;8.33;100.00
43878;BME280;29815;48.184;11.268;2023-03-23T00:22:40;95102.63;;;8.28;100.00
43878;BME280;29815;48.184;11.268;2023-03-23T00:25:09;95106.41;;;8.27;100.00
43878;BME280;29815;48.184;11.268;2023-03-23T00:27:38;95103.69;;;8.22;100.00
43878;BME280;29815;48.184;11.268;2023-03-23T00:30:11;95100.50;;;8.25;100.00
43878;BME280;29815;48.184;11.268;2023-03-23T00:32:39;95110.94;;;8.26;100.00
43878;BME280;29815;48.184;11.268;2023-03-23T00:35:09;95104.78;;;8.31;100.00
43878;BME280;29815;48.184;11.268;2023-03-23T00:37:37;95107.75;;;8.29;100.00
43878;BME280;29815;48.184;11.268;2023-03-23T00:40:08;95107.75;;;8.29;100.00
43878;BME280;29815;48.184;11.268;2023-03-23T00:42:39;95108.59;;;8.35;100.00
43878;BME280;29815;48.184;11.268;2023-03-23T00:45:08;95109.91;;;8.32;100.00
43878;BME280;29815;48.184;11.268;2023-03-23T00:47:38;95108.31;;;8.36;100.00
43878;BME280;29815;48.184;11.268;2023-03-23T00:50:09;95107.53;;;8.36;100.00
43878;BME280;29815;48.184;11.268;2023-03-23T00:52:40;95107.19;;;8.27;100.00
43878;BME280;29815;48.184;11.268;2023-03-23T00:55:10;95103.44;;;8.28;100.00
43878;BME280;29815;48.184;11.268;2023-03-23T00:57:38;95095.38;;;8.23;100.00
43878;BME280;29815;48.184;11.268;2023-03-23T01:00:09;95093.28;;;8.20;100.00
43878;BME280;29815;48.184;11.268;2023-03-23T01:02:38;95094.88;;;8.16;100.00
43878;BME280;29815;48.184;11.268;2023-03-23T01:05:08;95096.72;;;8.10;100.00
43878;BME280;29815;48.184;11.268;2023-03-23T01:07:37;95098.59;;;8.05;100.00
43878;BME280;29815;48.184;11.268;2023-03-23T01:10:08;95101.25;;;8.00;100.00
43878;BME280;29815;48.184;11.268;2023-03-23T01:12:39;95096.44;;;8.02;100.00
43878;BME280;29815;48.184;11.268;2023-03-23T01:15:09;95089.19;;;8.02;100.00
43878;BME280;29815;48.184;11.268;2023-03-23T01:17:38;95094.03;;;8.05;100.00
43878;BME280;29815;48.184;11.268;2023-03-23T01:20:07;95088.66;;;8.00;100.00
43878;BME280;29815;48.184;11.268;2023-03-23T01:22:36;95078.47;;;7.97;100.00
43878;BME280;29815;48.184;11.268;2023-03-23T01:25:07;95077.09;;;7.95;100.00
43878;BME280;29815;48.184;11.268;2023-03-23T01:27:39;95083.28;;;7.85;100.00
43878;BME280;29815;48.184;11.268;2023-03-23T01:30:11;95082.72;;;7.78;100.00
43878;BME280;29815;48.184;11.268;2023-03-23T01:32:40;95077.06;;;7.74;100.00
43878;BME280;29815;48.184;11.268;2023-03-23T01:35:09;95082.44;;;7.74;100.00
43878;BME280;29815;48.184;11.268;2023-03-23T01:37:37;95090.72;;;7.73;100.00
43878;BME280;29815;48.184;11.268;2023-03-23T01:40:08;95091.78;;;7.72;100.00
43878;BME280;29815;48.184;11.268;2023-03-23T01:42:40;95082.41;;;7.69;100.00
43878;BME280;29815;48.184;11.268;2023-03-23T01:45:31;95086.41;;;7.67;100.00
43878;BME280;29815;48.184;11.268;2023-03-23T01:48:07;95081.88;;;7.62;100.00
43878;BME280;29815;48.184;11.268;2023-03-23T01:50:47;95084.50;;;7.52;100.00
43878;BME280;29815;48.184;11.268;2023-03-23T01:53:20;95072.72;;;7.53;100.00
43878;BME280;29815;48.184;11.268;2023-03-23T01:55:53;95061.72;;;7.50;100.00
43878;BME280;29815;48.184;11.268;2023-03-23T01:58:25;95062.78;;;7.48;100.00
43878;BME280;29815;48.184;11.268;2023-03-23T02:00:58;95059.31;;;7.48;100.00
43878;BME280;29815;48.184;11.268;2023-03-23T02:03:30;95059.31;;;7.48;100.00
43878;BME280;29815;48.184;11.268;2023-03-23T02:05:59;95057.44;;;7.48;100.00
43878;BME280;29815;48.184;11.268;2023-03-23T02:09:00;95053.94;;;7.48;100.00
43878;BME280;29815;48.184;11.268;2023-03-23T02:11:31;95057.69;;;7.47;100.00
43878;BME280;29815;48.184;11.268;2023-03-23T02:14:01;95050.97;;;7.44;100.00
43878;BME280;29815;48.184;11.268;2023-03-23T02:16:42;95059.81;;;7.45;100.00
43878;BME280;29815;48.184;11.268;2023-03-23T02:19:33;95064.63;;;7.43;100.00
43878;BME280;29815;48.184;11.268;2023-03-23T02:26:19;95064.09;;;7.41;100.00
43878;BME280;29815;48.184;11.268;2023-03-23T02:36:04;95058.53;;;7.53;100.00
43878;BME280;29815;48.184;11.268;2023-03-23T02:38:44;95055.31;;;7.51;100.00
43878;BME280;29815;48.184;11.268;2023-03-23T02:41:23;95059.31;;;7.48;100.00
43878;BME280;29815;48.184;11.268;2023-03-23T02:43:54;95052.34;;;7.52;100.00
43878;BME280;29815;48.184;11.268;2023-03-23T02:46:24;95051.81;;;7.50;100.00
43878;BME280;29815;48.184;11.268;2023-03-23T02:48:55;95047.81;;;7.53;100.00
43878;BME280;29815;48.184;11.268;2023-03-23T02:51:26;95044.31;;;7.47;100.00
43878;BME280;29815;48.184;11.268;2023-03-23T02:53:56;95042.13;;;7.39;100.00
43878;BME280;29815;48.184;11.268;2023-03-23T02:56:26;95043.22;;;7.38;100.00
43878;BME280;29815;48.184;11.268;2023-03-23T02:58:56;95038.66;;;7.33;100.00
43878;BME280;29815;48.184;11.268;2023-03-23T03:02:05;95038.34;;;7.30;100.00
43878;BME280;29815;48.184;11.268;2023-03-23T03:04:39;95030.06;;;7.31;100.00
43878;BME280;29815;48.184;11.268;2023-03-23T03:07:55;95037.81;;;7.28;100.00
43878;BME280;29815;48.184;11.268;2023-03-23T03:10:34;95037.00;;;7.27;100.00
43878;BME280;29815;48.184;11.268;2023-03-23T03:13:14;95040.19;;;7.24;100.00
43878;BME280;29815;48.184;11.268;2023-03-23T03:15:53;95048.78;;;7.26;100.00
43878;BME280;29815;48.184;11.268;2023-03-23T03:18:31;95048.47;;;7.18;100.00
43878;BME280;29815;48.184;11.268;2023-03-23T03:21:07;95054.34;;;7.14;100.00
43878;BME280;29815;48.184;11.268;2023-03-23T03:23:42;95053.78;;;7.12;100.00
43878;BME280;29815;48.184;11.268;2023-03-23T03:26:13;95049.81;;;7.20;100.00
43878;BME280;29815;48.184;11.268;2023-03-23T03:28:50;95051.22;;;7.33;100.00
43878;BME280;29815;48.184;11.268;2023-03-23T03:31:27;95063.56;;;7.44;100.00
43878;BME280;29815;48.184;11.268;2023-03-23T03:33:58;95052.34;;;7.47;100.00
43878;BME280;29815;48.184;11.268;2023-03-23T03:36:33;95050.22;;;7.54;100.00
43878;BME280;29815;48.184;11.268;2023-03-23T03:39:09;95047.06;;;7.62;100.00
43878;BME280;29815;48.184;11.268;2023-03-23T03:41:38;95047.56;;;7.59;100.00
43878;BME280;29815;48.184;11.268;2023-03-23T03:44:08;95049.47;;;7.64;100.00
43878;BME280;29815;48.184;11.268;2023-03-23T03:46:37;95048.63;;;7.58;100.00
43878;BME280;29815;48.184;11.268;2023-03-23T03:49:10;95062.03;;;7.58;100.00
43878;BME280;29815;48.184;11.268;2023-03-23T03:51:42;95069.28;;;7.63;100.00
43878;BME280;29815;48.184;11.268;2023-03-23T03:54:19;95066.31;;;7.59;100.00
43878;BME280;29815;48.184;11.268;2023-03-23T03:56:47;95074.38;;;7.64;100.00
43878;BME280;29815;48.184;11.268;2023-03-23T03:59:44;95077.03;;;7.59;100.00
43878;BME280;29815;48.184;11.268;2023-03-23T04:02:26;95072.22;;;7.71;100.00
43878;BME280;29815;48.184;11.268;2023-03-23T04:04:56;95079.19;;;7.72;100.00
43878;BME280;29815;48.184;11.268;2023-03-23T04:07:25;95075.72;;;7.72;100.00
43878;BME280;29815;48.184;11.268;2023-03-23T04:09:57;95073.56;;;7.69;100.00
43878;BME280;29815;48.184;11.268;2023-03-23T04:12:25;95078.41;;;7.77;100.00
43878;BME280;29815;48.184;11.268;2023-03-23T04:14:57;95074.09;;;7.71;100.00
43878;BME280;29815;48.184;11.268;2023-03-23T04:17:33;95075.19;;;7.75;100.00
43878;BME280;29815;48.184;11.268;2023-03-23T04:20:04;95077.88;;;7.75;100.00
43878;BME280;29815;48.184;11.268;2023-03-23T04:22:40;95088.88;;;7.78;100.00
43878;BME280;29815;48.184;11.268;2023-03-23T04:25:12;95087.53;;;7.81;100.00
43878;BME280;29815;48.184;11.268;2023-03-23T04:27:42;95083.00;;;7.81;100.00
43878;BME280;29815;48.184;11.268;2023-03-23T04:30:14;95083.00;;;7.81;100.00
43878;BME280;29815;48.184;11.268;2023-03-23T04:32:47;95081.63;;;7.79;100.00
43878;BME280;29815;48.184;11.268;2023-03-23T04:35:22;95077.06;;;7.74;100.00
43878;BME280;29815;48.184;11.268;2023-03-23T04:38:05;95077.59;;;7.76;100.00
43878;BME280;29815;48.184;11.268;2023-03-23T04:40:36;95086.72;;;7.80;100.00
43878;BME280;29815;48.184;11.268;2023-03-23T04:43:35;95086.78;;;8.01;100.00
43878;BME280;29815;48.184;11.268;2023-03-23T04:46:26;95091.34;;;8.00;100.00
43878;BME280;29815;48.184;11.268;2023-03-23T04:48:58;95083.81;;;7.97;100.00
43878;BME280;29815;48.184;11.268;2023-03-23T04:51:32;95082.22;;;7.96;100.00
43878;BME280;29815;48.184;11.268;2023-03-23T04:54:16;95089.44;;;7.91;100.00
43878;BME280;29815;48.184;11.268;2023-03-23T04:56:50;95081.97;;;7.93;100.00
43878;BME280;29815;48.184;11.268;2023-03-23T04:59:19;95085.41;;;7.93;100.00
43878;BME280;29815;48.184;11.268;2023-03-23T05:02:08;95090.00;;;7.93;100.00
43878;BME280;29815;48.184;11.268;2023-03-23T05:04:37;95098.56;;;7.90;100.00
43878;BME280;29815;48.184;11.268;2023-03-23T05:07:15;95103.66;;;7.91;100.00
43878;BME280;29815;48.184;11.268;2023-03-23T05:09:49;95096.69;;;7.90;100.00
43878;BME280;29815;48.184;11.268;2023-03-23T05:12:21;95097.50;;;7.91;100.00
43878;BME280;29815;48.184;11.268;2023-03-23T05:14:54;95095.88;;;7.95;100.00
43878;BME280;29815;48.184;11.268;2023-03-23T05:17:26;95100.44;;;7.99;100.00
43878;BME280;29815;48.184;11.268;2023-03-23T05:19:58;95111.16;;;7.99;100.00
43878;BME280;29815;48.184;11.268;2023-03-23T05:22:48;95106.88;;;7.98;100.00
43878;BME280;29815;48.184;11.268;2023-03-23T05:25:24;95099.91;;;7.97;100.00
43878;BME280;29815;48.184;11.268;2023-03-23T05:28:00;95087.59;;;7.91;100.00
43878;BME280;29815;48.184;11.268;2023-03-23T05:30:46;95064.50;;;7.85;100.00
43878;BME280;29815;48.184;11.268;2023-03-23T05:33:16;95048.16;;;7.81;100.00
43878;BME280;29815;48.184;11.268;2023-03-23T05:35:49;95021.63;;;7.80;100.00
43878;BME280;29815;48.184;11.268;2023-03-23T05:38:23;95016.28;;;7.80;100.00
43878;BME280;29815;48.184;11.268;2023-03-23T05:40:58;95018.69;;;7.81;100.00
43878;BME280;29815;48.184;11.268;2023-03-23T05:43:36;95004.53;;;7.91;100.00
43878;BME280;29815;48.184;11.268;2023-03-23T05:46:18;95020.06;;;8.04;100.00
43878;BME280;29815;48.184;11.268;2023-03-23T05:48:48;95022.47;;;8.11;100.00
43878;BME280;29815;48.184;11.268;2023-03-23T05:51:21;95027.59;;;8.18;100.00
43878;BME280;29815;48.184;11.268;2023-03-23T05:53:49;95030.03;;;8.34;100.00
43878;BME280;29815;48.184;11.268;2023-03-23T05:56:19;95049.59;;;8.50;100.00
43878;BME280;29815;48.184;11.268;2023-03-23T05:59:02;95059.78;;;8.68;100.00
43878;BME280;29815;48.184;11.268;2023-03-23T06:01:34;95047.41;;;8.88;100.00
43878;BME280;29815;48.184;11.268;2023-03-23T06:04:03;95055.19;;;8.99;100.00
43878;BME280;29815;48.184;11.268;2023-03-23T06:06:41;95068.56;;;9.14;100.00
43878;BME280;29815;48.184;11.268;2023-03-23T06:09:11;95057.81;;;9.20;100.00
43878;BME280;29815;48.184;11.268;2023-03-23T06:12:13;95056.47;;;9.27;100.00
43878;BME280;29815;48.184;11.268;2023-03-23T06:14:56;95052.44;;;9.25;100.00
43878;BME280;29815;48.184;11.268;2023-03-23T06:17:39;95032.31;;;9.22;100.00
43878;BME280;29815;48.184;11.268;2023-03-23T06:20:09;95028.81;;;9.22;100.00
43878;BME280;29815;48.184;11.268;2023-03-23T06:22:40;95042.25;;;9.22;100.00
43878;BME280;29815;48.184;11.268;2023-03-23T06:25:12;95038.75;;;9.21;100.00
43878;BME280;29815;48.184;11.268;2023-03-23T06:27:45;95042.25;;;9.22;100.00
43878;BME280;29815;48.184;11.268;2023-03-23T06:30:15;95037.66;;;9.27;100.00
43878;BME280;29815;48.184;11.268;2023-03-23T06:32:44;95031.97;;;9.34;100.00
43878;BME280;29815;48.184;11.268;2023-03-23T06:35:15;95031.16;;;9.38;100.00
43878;BME280;29815;48.184;11.268;2023-03-23T06:38:10;95028.19;;;9.45;100.00
43878;BME280;29815;48.184;11.268;2023-03-23T06:40:52;95019.03;;;9.51;100.00
43878;BME280;29815;48.184;11.268;2023-03-23T06:43:22;95011.75;;;9.57;100.00
43878;BME280;29815;48.184;11.268;2023-03-23T06:46:09;95014.13;;;9.63;100.00
43878;BME280;29815;48.184;11.268;2023-03-23T06:48:57;95021.59;;;9.71;100.00
43878;BME280;29815;48.184;11.268;2023-03-23T06:51:36;95023.72;;;9.79;100.00
43878;BME280;29815;48.184;11.268;2023-03-23T06:54:04;95025.00;;;9.87;100.00
43878;BME280;29815;48.184;11.268;2023-03-23T06:56:38;95024.69;;;9.94;100.00
43878;BME280;29815;48.184;11.268;2023-03-23T06:59:09;95014.97;;;10.03;100.00
43878;BME280;29815;48.184;11.268;2023-03-23T07:01:39;95021.38;;;10.12;100.00
43878;BME280;29815;48.184;11.268;2023-03-23T07:04:08;95026.41;;;10.18;100.00
43878;BME280;29815;48.184;11.268;2023-03-23T07:06:47;95032.84;;;10.28;100.00
43878;BME280;29815;48.184;11.268;2023-03-23T07:09:15;95024.75;;;10.33;100.00
43878;BME280;29815;48.184;11.268;2023-03-23T07:11:44;95029.84;;;10.34;100.00
43878;BME280;29815;48.184;11.268;2023-03-23T07:14:26;95027.41;;;10.38;100.00
43878;BME280;29815;48.184;11.268;2023-03-23T07:16:55;95035.13;;;10.44;100.00
43878;BME280;29815;48.184;11.268;2023-03-23T07:19:24;95036.44;;;10.47;100.00
43878;BME280;29815;48.184;11.268;2023-03-23T07:21:53;95036.09;;;10.59;100.00
43878;BME280;29815;48.184;11.268;2023-03-23T07:24:24;95034.88;;;10.75;100.00
43878;BME280;29815;48.184;11.268;2023-03-23T07:27:18;95028.84;;;10.88;100.00
43878;BME280;29815;48.184;11.268;2023-03-23T07:29:49;95034.16;;;10.93;100.00
43878;BME280;29815;48.184;11.268;2023-03-23T07:32:23;95035.38;;;11.06;100.00
43878;BME280;29815;48.184;11.268;2023-03-23T07:34:52;95030.22;;;11.09;100.00
43878;BME280;29815;48.184;11.268;2023-03-23T07:37:32;95025.59;;;11.15;100.00
43878;BME280;29815;48.184;11.268;2023-03-23T07:40:02;95024.13;;;11.23;100.00
43878;BME280;29815;48.184;11.268;2023-03-23T07:42:45;95025.34;;;11.35;100.00
43878;BME280;29815;48.184;11.268;2023-03-23T07:45:30;95023.78;;;11.53;100.00
43878;BME280;29815;48.184;11.268;2023-03-23T07:47:59;95020.97;;;11.63;100.00
43878;BME280;29815;48.184;11.268;2023-03-23T07:50:28;95020.34;;;11.71;100.00
43878;BME280;29815;48.184;11.268;2023-03-23T07:52:58;95023.22;;;11.80;100.00
43878;BME280;29815;48.184;11.268;2023-03-23T07:55:29;95024.91;;;11.95;100.00
43878;BME280;29815;48.184;11.268;2023-03-23T07:58:04;95033.75;;;12.00;100.00
43878;BME280;29815;48.184;11.268;2023-03-23T08:00:34;95032.53;;;12.06;100.00
43878;BME280;29815;48.184;11.268;2023-03-23T08:03:06;95036.44;;;12.19;100.00
43878;BME280;29815;48.184;11.268;2023-03-23T08:05:56;95038.59;;;12.36;100.00
43878;BME280;29815;48.184;11.268;2023-03-23T08:08:47;95041.28;;;12.54;97.96
43878;BME280;29815;48.184;11.268;2023-03-23T08:11:42;95047.00;;;12.67;100.00
43878;BME280;29815;48.184;11.268;2023-03-23T08:14:33;95052.25;;;12.77;100.00
43878;BME280;29815;48.184;11.268;2023-03-23T08:17:27;95056.28;;;12.93;100.00
43878;BME280;29815;48.184;11.268;2023-03-23T08:20:18;95062.25;;;13.09;92.36
43878;BME280;29815;48.184;11.268;2023-03-23T08:23:06;95057.78;;;13.18;96.00
43878;BME280;29815;48.184;11.268;2023-03-23T08:25:49;95052.50;;;13.27;90.40
43878;BME280;29815;48.184;11.268;2023-03-23T08:28:41;95063.41;;;13.35;92.06
43878;BME280;29815;48.184;11.268;2023-03-23T08:31:29;95058.22;;;13.39;89.40
43878;BME280;29815;48.184;11.268;2023-03-23T08:34:09;95060.59;;;13.40;91.67
43878;BME280;29815;48.184;11.268;2023-03-23T08:36:54;95055.09;;;13.45;95.61
43878;BME280;29815;48.184;11.268;2023-03-23T08:39:45;95072.34;;;13.63;91.53
43878;BME280;29815;48.184;11.268;2023-03-23T08:42:42;95065.63;;;13.74;94.43
43878;BME280;29815;48.184;11.268;2023-03-23T08:45:31;95064.41;;;13.80;93.50
43878;BME280;29815;48.184;11.268;2023-03-23T08:48:33;95071.31;;;14.00;90.35
43878;BME280;29815;48.184;11.268;2023-03-23T08:51:21;95072.50;;;14.08;89.71
43878;BME280;29815;48.184;11.268;2023-03-23T08:54:10;95075.31;;;14.16;87.26
43878;BME280;29815;48.184;11.268;2023-03-23T08:57:05;95083.78;;;14.23;87.38
43878;BME280;29815;48.184;11.268;2023-03-23T08:59:45;95089.09;;;14.29;83.13
43878;BME280;29815;48.184;11.268;2023-03-23T09:02:18;95085.94;;;14.13;84.19
43878;BME280;29815;48.184;11.268;2023-03-23T09:04:54;95086.31;;;14.20;80.98
43878;BME280;29815;48.184;11.268;2023-03-23T09:07:34;95093.44;;;14.16;82.65
43878;BME280;29815;48.184;11.268;2023-03-23T09:10:03;95093.09;;;14.31;82.27
43878;BME280;29815;48.184;11.268;2023-03-23T09:12:33;95099.50;;;14.35;82.00
43878;BME280;29815;48.184;11.268;2023-03-23T09:15:03;95102.31;;;14.30;80.67
43878;BME280;29815;48.184;11.268;2023-03-23T09:17:38;95104.72;;;14.32;82.88
43878;BME280;29815;48.184;11.268;2023-03-23T09:20:14;95112.75;;;14.23;80.13
43878;BME280;29815;48.184;11.268;2023-03-23T09:22:47;95113.47;;;14.29;82.25
43878;BME280;29815;48.184;11.268;2023-03-23T09:25:21;95125.19;;;14.24;79.59
43878;BME280;29815;48.184;11.268;2023-03-23T09:27:54;95113.09;;;14.08;80.38
43878;BME280;29815;48.184;11.268;2023-03-23T09:30:26;95112.38;;;14.16;83.22
43878;BME280;29815;48.184;11.268;2023-03-23T09:32:56;95110.06;;;14.23;82.55
43878;BME280;29815;48.184;11.268;2023-03-23T09:35:27;95103.94;;;14.31;81.16
43878;BME280;29815;48.184;11.268;2023-03-23T09:37:58;95097.72;;;14.44;81.86
43878;BME280;29815;48.184;11.268;2023-03-23T09:40:32;95104.09;;;14.62;81.02
43878;BME280;29815;48.184;11.268;2023-03-23T09:43:23;95105.50;;;14.82;79.69
43878;BME280;29815;48.184;11.268;2023-03-23T09:46:13;95101.56;;;14.88;77.63
43878;BME280;29815;48.184;11.268;2023-03-23T09:48:52;95105.28;;;14.92;76.72
43878;BME280;29815;48.184;11.268;2023-03-23T09:51:34;95108.91;;;14.87;75.47
43878;BME280;29815;48.184;11.268;2023-03-23T09:54:18;95112.22;;;15.07;75.61
43878;BME280;29815;48.184;11.268;2023-03-23T09:56:48;95112.72;;;15.09;76.31
43878;BME280;29815;48.184;11.268;2023-03-23T09:59:24;95114.09;;;15.20;76.06
43878;BME280;29815;48.184;11.268;2023-03-23T10:01:59;95111.25;;;15.25;75.17
43878;BME280;29815;48.184;11.268;2023-03-23T10:04:43;95115.66;;;15.43;73.51
43878;BME280;29815;48.184;11.268;2023-03-23T10:07:17;95124.03;;;15.55;73.39
43878;BME280;29815;48.184;11.268;2023-03-23T10:09:51;95115.19;;;15.72;71.26
43878;BME280;29815;48.184;11.268;2023-03-23T10:12:27;95107.66;;;15.69;70.83
43878;BME280;29815;48.184;11.268;2023-03-23T10:15:14;95111.06;;;15.75;70.34
43878;BME280;29815;48.184;11.268;2023-03-23T10:17:52;95102.16;;;15.83;71.35
43878;BME280;29815;48.184;11.268;2023-03-23T10:20:42;95110.78;;;15.85;73.67
43878;BME280;29815;48.184;11.268;2023-03-23T10:23:49;95106.28;;;15.80;73.51
43878;BME280;29815;48.184;11.268;2023-03-23T10:26:33;95118.75;;;15.90;72.23
43878;BME280;29815;48.184;11.268;2023-03-23T10:29:15;95112.84;;;15.88;70.84
43878;BME280;29815;48.184;11.268;2023-03-23T10:31:49;95108.06;;;15.94;71.78
43878;BME280;29815;48.184;11.268;2023-03-23T10:34:41;95112.13;;;16.05;70.16
43878;BME280;29815;48.184;11.268;2023-03-23T10:37:16;95099.34;;;16.14;71.00
43878;BME280;29815;48.184;11.268;2023-03-23T10:39:50;95104.63;;;16.19;70.21
43878;BME280;29815;48.184;11.268;2023-03-23T10:42:25;95105.16;;;16.30;70.93
43878;BME280;29815;48.184;11.268;2023-03-23T10:44:57;95100.53;;;16.30;71.22
43878;BME280;29815;48.184;11.268;2023-03-23T10:47:27;95105.50;;;16.45;69.73
43878;BME280;29815;48.184;11.268;2023-03-23T10:49:59;95106.94;;;16.51;71.15
43878;BME280;29815;48.184;11.268;2023-03-23T10:52:36;95106.16;;;16.59;66.99
43878;BME280;29815;48.184;11.268;2023-03-23T10:55:10;95108.25;;;16.63;70.23
43878;BME280;29815;48.184;11.268;2023-03-23T10:57:44;95103.63;;;16.72;68.88
43878;BME280;29815;48.184;11.268;2023-03-23T11:00:20;95104.91;;;16.74;69.02
43878;BME280;29815;48.184;11.268;2023-03-23T11:03:00;95104.75;;;16.71;67.65
43878;BME280;29815;48.184;11.268;2023-03-23T11:05:37;95105.06;;;16.86;69.89
43878;BME280;29815;48.184;11.268;2023-03-23T11:08:14;95100.09;;;16.97;67.55
43878;BME280;29815;48.184;11.268;2023-03-23T11:10:50;95105.53;;;17.06;67.11
43878;BME280;29815;48.184;11.268;2023-03-23T11:13:22;95095.91;;;17.25;67.87
43878;BME280;29815;48.184;11.268;2023-03-23T11:15:58;95092.19;;;17.47;65.91
43878;BME280;29815;48.184;11.268;2023-03-23T11:18:37;95089.44;;;17.56;65.46
43878;BME280;29815;48.184;11.268;2023-03-23T11:21:08;95090.72;;;17.58;64.68
43878;BME280;29815;48.184;11.268;2023-03-23T11:23:42;95089.91;;;17.67;61.43
43878;BME280;29815;48.184;11.268;2023-03-23T11:26:18;95092.09;;;17.82;61.20
43878;BME280;29815;48.184;11.268;2023-03-23T11:28:55;95085.16;;;17.93;59.66
43878;BME280;29815;48.184;11.268;2023-03-23T11:31:29;95095.63;;;18.12;61.17
43878;BME280;29815;48.184;11.268;2023-03-23T11:34:03;95077.31;;;18.21;59.68
43878;BME280;29815;48.184;11.268;2023-03-23T11:36:35;95080.88;;;18.42;61.64
43878;BME280;29815;48.184;11.268;2023-03-23T11:39:21;95090.22;;;18.62;58.88
43878;BME280;29815;48.184;11.268;2023-03-23T11:41:51;95082.31;;;18.69;58.80
43878;BME280;29815;48.184;11.268;2023-03-23T11:44:23;95076.97;;;18.52;58.80
43878;BME280;29815;48.184;11.268;2023-03-23T11:47:00;95079.44;;;18.66;57.15
43878;BME280;29815;48.184;11.268;2023-03-23T11:49:41;95079.72;;;18.73;58.47
43878;BME280;29815;48.184;11.268;2023-03-23T11:52:22;95080.94;;;18.84;57.87
43878;BME280;29815;48.184;11.268;2023-03-23T11:54:58;95080.09;;;19.04;56.96
43878;BME280;29815;48.184;11.268;2023-03-23T11:57:32;95083.47;;;19.22;56.17
43878;BME280;29815;48.184;11.268;2023-03-23T12:00:04;95073.81;;;19.24;53.50
43878;BME280;29815;48.184;11.268;2023-03-23T12:06:01;95073.53;;;19.05;54.15
43878;BME280;29815;48.184;11.268;2023-03-23T12:08:59;95074.06;;;18.99;55.49
43878;BME280;29815;48.184;11.268;2023-03-23T12:11:40;95071.41;;;18.90;56.37
43878;BME280;29815;48.184;11.268;2023-03-23T12:14:24;95079.47;;;18.86;54.10
43878;BME280;29815;48.184;11.268;2023-03-23T12:17:12;95083.31;;;18.65;54.31
43878;BME280;29815;48.184;11.268;2023-03-23T12:19:58;95078.84;;;18.60;56.62
43878;BME280;29815;48.184;11.268;2023-03-23T12:22:52;95087.03;;;18.60;53.90
43878;BME280;29815;48.184;11.268;2023-03-23T12:26:03;95084.13;;;18.36;53.19
43878;BME280;29815;48.184;11.268;2023-03-23T12:28:47;95077.47;;;18.24;55.55
43878;BME280;29815;48.184;11.268;2023-03-23T12:31:41;95079.91;;;18.17;55.96
43878;BME280;29815;48.184;11.268;2023-03-23T12:34:26;95068.59;;;18.07;54.66
43878;BME280;29815;48.184;11.268;2023-03-23T12:37:20;95076.31;;;18.05;55.18
43878;BME280;29815;48.184;11.268;2023-03-23T12:40:23;95085.63;;;17.95;57.57
43878;BME280;29815;48.184;11.268;2023-03-23T12:43:06;95075.25;;;17.88;58.63
43878;BME280;29815;48.184;11.268;2023-03-23T12:46:04;95083.78;;;17.78;57.75
43878;BME280;29815;48.184;11.268;2023-03-23T12:48:59;95078.38;;;17.70;59.03
43878;BME280;29815;48.184;11.268;2023-03-23T12:51:37;95076.13;;;17.63;58.72
43878;BME280;29815;48.184;11.268;2023-03-23T12:54:15;95081.75;;;17.58;60.23
43878;BME280;29815;48.184;11.268;2023-03-23T12:56:52;95076.63;;;17.56;60.28
43878;BME280;29815;48.184;11.268;2023-03-23T12:59:32;95069.56;;;17.64;60.03
43878;BME280;29815;48.184;11.268;2023-03-23T13:02:13;95071.22;;;17.48;60.26
43878;BME280;29815;48.184;11.268;2023-03-23T13:04:52;95068.69;;;17.43;61.34
43878;BME280;29815;48.184;11.268;2023-03-23T13:07:30;95063.34;;;17.55;62.02
43878;BME280;29815;48.184;11.268;2023-03-23T13:10:15;95073.63;;;17.49;60.13
43878;BME280;29815;48.184;11.268;2023-03-23T13:12:49;95070.53;;;17.68;61.45
43878;BME280;29815;48.184;11.268;2023-03-23T13:15:32;95068.84;;;17.84;59.83
43878;BME280;29815;48.184;11.268;2023-03-23T13:18:10;95066.88;;;18.02;61.01
43878;BME280;29815;48.184;11.268;2023-03-23T13:20:54;95058.81;;;18.06;58.57
43878;BME280;29815;48.184;11.268;2023-03-23T13:23:34;95066.81;;;18.11;61.24
43878;BME280;29815;48.184;11.268;2023-03-23T13:26:08;95060.09;;;18.08;59.08
43878;BME280;29815;48.184;11.268;2023-03-23T13:28:54;95063.41;;;18.14;58.65
43878;BME280;29815;48.184;11.268;2023-03-23T13:31:27;95058.13;;;18.17;60.09
43878;BME280;29815;48.184;11.268;2023-03-23T13:34:04;95061.06;;;18.33;60.32
43878;BME280;29815;48.184;11.268;2023-03-23T13:36:36;95048.81;;;18.18;57.96
43878;BME280;29815;48.184;11.268;2023-03-23T13:39:19;95062.94;;;18.12;59.40
43878;BME280;29815;48.184;11.268;2023-03-23T13:42:05;95055.34;;;17.97;56.80
43878;BME280;29815;48.184;11.268;2023-03-23T13:45:08;95062.47;;;17.80;57.36
43878;BME280;29815;48.184;11.268;2023-03-23T13:47:49;95052.84;;;17.83;56.99
43878;BME280;29815;48.184;11.268;2023-03-23T13:50:29;95053.09;;;17.69;58.33
43878;BME280;29815;48.184;11.268;2023-03-23T13:53:00;95055.34;;;17.58;57.78
43878;BME280;29815;48.184;11.268;2023-03-23T13:55:47;95057.25;;;17.58;57.50